x

Galveston,tx - 22 Nm East Of Galveston, Tx (42035) Wave Buoy

7:50am - Thu 28th Aug 2014 All times are CDT. -5 hours from GMT.

  • Sig Wave height 3.0ft
  • Swell Direction
  • Peak Period 4s
  • Average Period 4s
  • Wind
    18mph, 22mph gusts
  • Sea Temp 87°f
  • Air Temp 81°f
  • Sea Pressure 1012.4mb
  • Galveston,tx -  22 Nm East Of Galveston, Tx
  • Galveston,tx -  22 Nm East Of Galveston, Tx

More Historic Weather Station data

Upgrade to MSW Pro to gain access to the past 30 days of data for over 8000 Wavebouys and Weather Stations around the globe.

Join Pro

Comparision Forecast

View Surf forecast
   
Thu 08/28 7:50am 3ft 4s 4s 18 22 mph 1012.4mb 87f 81f
6:50am 3ft 6s 4s 13 18 mph 1012mb 87f 85f
5:50am 3ft 5s 4s 16 18 mph 1011.9mb 87f 85f
4:50am 3ft 5s 4s 13 16 mph 1012.1mb 87f 86f
3:50am 3.5ft 6s 4s 13 18 mph 1012.3mb 87f 85f
2:50am 3.5ft 5s 4s 16 20 mph 1012.8mb 87f 85f
1:50am 3.5ft 6s 4s 16 20 mph 1013.2mb 87f 85f
12:50am 3.5ft 5s 4s 18 20 mph 1013.4mb 87f 85f
Wed 08/27 11:50pm 3.5ft 5s 4s 18 20 mph 1013.6mb 87f 85f
10:50pm 4ft 5s 4s 20 22 mph 1013.6mb 87f 85f
9:50pm 3.5ft 5s 4s 20 22 mph 1014.1mb 87f 85f
8:50pm 3.5ft 6s 4s 16 18 mph 1013.3mb 87f 83f
7:50pm 4ft 5s 4s 16 20 mph 1013.4mb 87f 84f
6:50pm 3.5ft 6s 4s 18 22 mph 1013.4mb 87f 84f
5:50pm 3.5ft 6s 4s 18 22 mph 1012.9mb 87f 85f
4:50pm 3.5ft 5s 4s 16 20 mph 1013.5mb 87f 83f
3:50pm 3.5ft 6s 4s 18 20 mph 1013.6mb 87f 83f
2:50pm 3.5ft 6s 4s 16 18 mph 1014.1mb 87f 82f
1:50pm 4.5ft 6s 5s 16 20 mph 1014.8mb 87f 82f
12:50pm 4.5ft 6s 4s 20 25 mph 1014.7mb 87f 81f
11:50am 4.5ft 6s 5s 20 25 mph 1014.8mb 87f 82f
10:50am 4.5ft 6s 4s 13 16 mph 1014.9mb 87f 82f
9:50am 4ft 5s 4s 16 20 mph 1014.8mb 87f 82f
8:50am 4.5ft 5s 4s 16 20 mph 1014.2mb 87f 82f
7:50am 4.5ft 6s 4s 18 25 mph 1013.6mb 87f 81f
6:50am 4ft 6s 4s 22 27 mph 1013.1mb 87f 83f
5:50am 4ft 6s 5s 13 16 mph 1013mb 87f 84f
4:50am 4ft 7s 5s 11 13 mph 1012.9mb 87f 84f
3:50am 4ft 6s 5s 11 13 mph 1012.6mb 87f 84f
2:50am 4.5ft 6s 4s 18 22 mph 1013mb 87f 85f
1:50am 4ft 6s 5s 18 22 mph 1013.7mb 87f 85f
12:50am 4.5ft 6s 5s 16 20 mph 1014.1mb 87f 85f
Tue 08/26 11:50pm 4ft 6s 4s 18 20 mph 1014.1mb 87f 85f
10:50pm 4.5ft 5s 4s 20 25 mph 1013.8mb 87f 85f
9:50pm 3.5ft 5s 4s 18 22 mph 1013.4mb 87f 85f